Time;durP1;ratioP1;P1;durP2;ratioP2;P2;SDS_P1;SDS_P2;PMS_P1;PMS_P2;Temp;Humidity;BMP_temperature;BMP_pressure;BME280_temperature;BME280_humidity;BME280_pressure;Samples;Min_cycle;Max_cycle;Signal;HPM_P1;HPM_P2
2023/09/06 00:02:06;;;;;;;5.17;4.60;;;;;;;;;;6286896;28;20213;-71
2023/09/06 00:05:08;;;;;;;5.20;4.70;;;;;;;;;;6288447;28;20243;-71
2023/09/06 00:08:09;;;;;;;6.03;5.10;;;;;;;;;;6288532;28;20280;-71
2023/09/06 00:11:10;;;;;;;5.70;5.20;;;;;;;;;;6277522;28;20202;-71
2023/09/06 00:14:12;;;;;;;7.40;5.13;;;;;;;;;;6284153;28;20225;-71
2023/09/06 00:17:13;;;;;;;5.83;5.27;;;;;;;;;;6282667;28;20248;-71
2023/09/06 00:20:20;;;;;;;6.10;5.43;;;;;;;;;;6276703;28;20192;-71
2023/09/06 00:23:21;;;;;;;5.13;4.63;;;;;;;;;;6275650;28;20206;-71
2023/09/06 00:26:22;;;;;;;5.03;4.60;;;;;;;;;;6269782;28;20189;-70
2023/09/06 00:29:23;;;;;;;6.90;5.70;;;;;;;;;;6255213;28;20197;-70
2023/09/06 00:32:24;;;;;;;4.70;4.17;;;;;;;;;;6297268;28;20239;-71
2023/09/06 00:35:26;;;;;;;6.20;5.03;;;;;;;;;;6288093;28;20195;-71
2023/09/06 00:38:28;;;;;;;6.10;4.80;;;;;;;;;;6277156;28;20198;-71
2023/09/06 00:41:29;;;;;;;5.07;4.60;;;;;;;;;;6300701;28;20301;-71
2023/09/06 00:44:30;;;;;;;4.97;4.57;;;;;;;;;;6286455;28;20217;-71
2023/09/06 00:47:32;;;;;;;7.30;5.40;;;;;;;;;;6253014;28;20201;-71
2023/09/06 00:50:36;;;;;;;5.93;4.90;;;;;;;;;;6289514;28;20195;-71
2023/09/06 00:53:37;;;;;;;5.17;4.67;;;;;;;;;;6291908;28;20198;-71
2023/09/06 00:56:39;;;;;;;5.03;4.53;;;;;;;;;;6289659;28;20193;-71
2023/09/06 00:59:40;;;;;;;7.17;5.07;;;;;;;;;;6259233;28;20191;-71
2023/09/06 01:02:41;;;;;;;4.90;4.50;;;;;;;;;;6258718;28;20254;-71
2023/09/06 01:05:42;;;;;;;5.70;5.23;;;;;;;;;;6269370;28;20198;-71
2023/09/06 01:08:46;;;;;;;5.00;4.60;;;;;;;;;;6285120;28;20182;-71
2023/09/06 01:11:47;;;;;;;6.10;5.13;;;;;;;;;;6296493;28;20194;-71
2023/09/06 01:14:48;;;;;;;5.27;4.73;;;;;;;;;;6299877;28;20263;-71
2023/09/06 01:17:52;;;;;;;7.57;4.73;;;;;;;;;;6271770;28;20199;-71
2023/09/06 01:20:56;;;;;;;5.97;4.80;;;;;;;;;;6294462;28;20217;-71
2023/09/06 01:23:58;;;;;;;7.97;4.87;;;;;;;;;;6285948;28;20566;-71
2023/09/06 01:26:59;;;;;;;6.67;4.90;;;;;;;;;;6304696;28;20191;-71
2023/09/06 01:30:01;;;;;;;7.10;4.47;;;;;;;;;;6288620;28;20209;-71
2023/09/06 01:33:03;;;;;;;8.07;4.97;;;;;;;;;;6275791;28;20241;-71
2023/09/06 01:36:04;;;;;;;6.53;5.10;;;;;;;;;;6292301;28;20199;-71
2023/09/06 01:39:06;;;;;;;5.57;5.07;;;;;;;;;;6301657;28;20214;-71
2023/09/06 01:42:07;;;;;;;5.57;4.73;;;;;;;;;;6301961;28;20306;-71
2023/09/06 01:45:08;;;;;;;5.83;5.30;;;;;;;;;;6287830;28;20204;-71
2023/09/06 01:48:09;;;;;;;6.37;4.90;;;;;;;;;;6286824;28;20296;-71
2023/09/06 01:51:10;;;;;;;5.33;4.83;;;;;;;;;;6301411;28;20210;-71
2023/09/06 01:54:11;;;;;;;6.77;4.73;;;;;;;;;;6291218;28;20202;-71
2023/09/06 01:57:12;;;;;;;5.27;4.77;;;;;;;;;;6244414;28;20245;-71
2023/09/06 02:00:27;;;;;;;8.73;4.80;;;;;;;;;;6299459;28;20201;-71
2023/09/06 02:03:29;;;;;;;5.50;5.00;;;;;;;;;;6289868;28;20281;-71
2023/09/06 02:06:30;;;;;;;7.37;5.30;;;;;;;;;;6286649;28;20190;-71
2023/09/06 02:09:31;;;;;;;5.70;5.17;;;;;;;;;;6288554;28;20198;-71
2023/09/06 02:12:32;;;;;;;5.13;4.73;;;;;;;;;;6284681;28;20198;-71
2023/09/06 02:15:33;;;;;;;6.03;5.37;;;;;;;;;;6296563;28;20202;-71
2023/09/06 02:18:34;;;;;;;7.40;5.30;;;;;;;;;;6290418;28;20228;-71
2023/09/06 02:21:38;;;;;;;6.77;5.03;;;;;;;;;;6274719;28;20210;-71
2023/09/06 02:24:39;;;;;;;5.83;5.27;;;;;;;;;;6292302;28;20196;-71
2023/09/06 02:27:40;;;;;;;6.83;5.67;;;;;;;;;;6296036;28;20215;-71
2023/09/06 02:30:41;;;;;;;5.70;4.90;;;;;;;;;;6288459;28;20545;-71
2023/09/06 02:33:43;;;;;;;6.57;5.10;;;;;;;;;;6293131;28;20242;-71
2023/09/06 02:36:45;;;;;;;6.87;5.33;;;;;;;;;;6286572;28;20191;-71
2023/09/06 02:39:48;;;;;;;6.47;5.03;;;;;;;;;;6267027;28;20269;-71
2023/09/06 02:42:49;;;;;;;6.27;5.67;;;;;;;;;;6294577;28;20217;-71
2023/09/06 02:45:53;;;;;;;6.43;5.47;;;;;;;;;;6304330;28;20194;-71
2023/09/06 02:48:58;;;;;;;6.30;5.70;;;;;;;;;;6272712;28;20243;-71
2023/09/06 02:51:59;;;;;;;5.60;5.10;;;;;;;;;;6258805;28;20204;-71
2023/09/06 02:55:04;;;;;;;8.80;6.00;;;;;;;;;;6291982;28;20193;-71
2023/09/06 02:58:05;;;;;;;6.80;6.20;;;;;;;;;;6277902;28;20190;-71
2023/09/06 03:01:06;;;;;;;8.87;5.17;;;;;;;;;;6296170;28;20257;-71
2023/09/06 03:04:08;;;;;;;6.33;5.30;;;;;;;;;;6288951;28;20277;-71
2023/09/06 03:07:09;;;;;;;8.97;5.33;;;;;;;;;;6288876;28;20194;-71
2023/09/06 03:10:10;;;;;;;7.87;5.83;;;;;;;;;;6301057;28;20226;-71
2023/09/06 03:13:11;;;;;;;5.87;5.17;;;;;;;;;;6259646;28;20198;-71
2023/09/06 03:16:13;;;;;;;9.60;5.80;;;;;;;;;;6254940;28;20204;-71
2023/09/06 03:19:14;;;;;;;6.23;5.10;;;;;;;;;;6298940;28;20227;-71
2023/09/06 03:22:16;;;;;;;6.03;5.43;;;;;;;;;;6258879;28;20243;-71
2023/09/06 03:25:17;;;;;;;6.37;5.77;;;;;;;;;;6269104;28;20335;-71
2023/09/06 03:28:18;;;;;;;6.33;5.43;;;;;;;;;;6289283;28;20195;-71
2023/09/06 03:31:19;;;;;;;6.40;5.33;;;;;;;;;;6289751;28;20202;-71
2023/09/06 03:34:22;;;;;;;6.30;5.73;;;;;;;;;;6298140;28;20196;-71
2023/09/06 03:37:23;;;;;;;6.97;5.20;;;;;;;;;;6303044;28;20233;-71
2023/09/06 03:40:25;;;;;;;6.00;5.40;;;;;;;;;;6260950;28;20195;-71
2023/09/06 03:43:32;;;;;;;6.37;5.40;;;;;;;;;;6280714;28;20227;-72
2023/09/06 03:46:34;;;;;;;6.60;5.70;;;;;;;;;;6298699;28;20188;-72
2023/09/06 03:49:35;;;;;;;6.70;5.50;;;;;;;;;;6260453;28;20240;-72
2023/09/06 03:52:38;;;;;;;7.23;5.83;;;;;;;;;;6291425;28;20199;-72
2023/09/06 03:55:41;;;;;;;7.33;5.60;;;;;;;;;;6287416;28;20293;-71
2023/09/06 03:58:42;;;;;;;6.33;5.57;;;;;;;;;;6290466;28;20253;-71
2023/09/06 04:01:45;;;;;;;6.43;5.30;;;;;;;;;;6288823;28;20218;-70
2023/09/06 04:04:47;;;;;;;6.23;5.63;;;;;;;;;;6277000;28;20183;-71
2023/09/06 04:07:48;;;;;;;7.33;6.23;;;;;;;;;;6280604;28;20190;-71
2023/09/06 04:10:49;;;;;;;6.63;5.97;;;;;;;;;;6256715;28;20204;-71
2023/09/06 04:13:51;;;;;;;6.73;6.03;;;;;;;;;;6288212;28;20189;-71
2023/09/06 04:16:53;;;;;;;7.43;5.83;;;;;;;;;;6283599;28;20197;-72
2023/09/06 04:19:54;;;;;;;6.20;5.33;;;;;;;;;;6286752;28;20200;-72
2023/09/06 04:22:55;;;;;;;8.57;6.23;;;;;;;;;;6282912;28;20220;-72
2023/09/06 04:25:56;;;;;;;7.50;5.73;;;;;;;;;;6291916;28;20201;-72
2023/09/06 04:28:57;;;;;;;6.67;6.00;;;;;;;;;;6262535;28;20204;-72
2023/09/06 04:31:58;;;;;;;8.90;6.00;;;;;;;;;;6288405;28;20233;-72
2023/09/06 04:35:00;;;;;;;6.80;6.10;;;;;;;;;;6284765;28;20275;-72
2023/09/06 04:38:02;;;;;;;6.37;5.87;;;;;;;;;;6289052;28;20203;-72
2023/09/06 04:41:03;;;;;;;6.70;5.70;;;;;;;;;;6306294;28;20214;-71
2023/09/06 04:44:04;;;;;;;6.23;5.63;;;;;;;;;;6282840;28;20200;-71
2023/09/06 04:47:05;;;;;;;6.87;6.13;;;;;;;;;;6290887;28;20197;-71
2023/09/06 04:50:07;;;;;;;6.93;6.23;;;;;;;;;;6283403;28;20186;-71
2023/09/06 04:53:09;;;;;;;6.70;6.10;;;;;;;;;;6270717;28;20197;-71
2023/09/06 04:56:10;;;;;;;7.20;6.50;;;;;;;;;;6285740;28;20198;-72
2023/09/06 04:59:11;;;;;;;6.83;6.23;;;;;;;;;;6293750;28;20193;-72
2023/09/06 05:02:12;;;;;;;8.57;6.27;;;;;;;;;;6280561;28;20238;-72
2023/09/06 05:05:14;;;;;;;7.60;6.47;;;;;;;;;;6291982;28;20205;-71
2023/09/06 05:08:15;;;;;;;11.53;6.80;;;;;;;;;;6285845;28;20194;-71
2023/09/06 05:11:16;;;;;;;8.17;5.93;;;;;;;;;;6271049;28;20226;-71
2023/09/06 05:14:17;;;;;;;6.97;6.27;;;;;;;;;;6271121;28;20247;-71
2023/09/06 05:17:18;;;;;;;8.47;5.90;;;;;;;;;;6282053;28;20194;-71
2023/09/06 05:20:27;;;;;;;6.90;6.30;;;;;;;;;;6302407;28;20199;-71
2023/09/06 05:23:28;;;;;;;6.60;6.00;;;;;;;;;;6293515;28;20218;-71
2023/09/06 05:26:29;;;;;;;7.67;6.70;;;;;;;;;;6289175;28;20190;-71
2023/09/06 05:29:32;;;;;;;6.97;6.27;;;;;;;;;;6292019;28;20247;-71
2023/09/06 05:32:33;;;;;;;10.10;6.23;;;;;;;;;;6288187;28;20241;-71
2023/09/06 05:35:34;;;;;;;6.83;5.97;;;;;;;;;;6293705;28;20200;-71
2023/09/06 05:38:35;;;;;;;10.17;6.97;;;;;;;;;;6292136;28;20193;-71
2023/09/06 05:41:38;;;;;;;20.70;9.20;;;;;;;;;;6283182;28;20209;-71
2023/09/06 05:44:39;;;;;;;24.23;9.47;;;;;;;;;;6270115;28;20194;-71
2023/09/06 05:47:40;;;;;;;10.13;7.17;;;;;;;;;;6300752;28;20191;-72
2023/09/06 05:50:41;;;;;;;15.03;8.77;;;;;;;;;;6288267;28;20202;-71
2023/09/06 05:53:42;;;;;;;34.87;13.80;;;;;;;;;;6274262;28;20205;-71
2023/09/06 05:56:43;;;;;;;21.73;9.83;;;;;;;;;;6292095;28;20202;-71
2023/09/06 05:59:44;;;;;;;39.97;15.53;;;;;;;;;;6281858;28;20243;-72
2023/09/06 06:02:46;;;;;;;28.57;11.67;;;;;;;;;;6299447;28;20277;-72
2023/09/06 06:05:47;;;;;;;16.60;8.40;;;;;;;;;;6291027;28;20182;-72
2023/09/06 06:08:48;;;;;;;9.87;7.47;;;;;;;;;;6268543;28;20201;-71
2023/09/06 06:11:49;;;;;;;7.33;6.50;;;;;;;;;;6287200;28;20197;-71
2023/09/06 06:14:53;;;;;;;6.27;5.67;;;;;;;;;;6295363;28;20198;-72
2023/09/06 06:17:54;;;;;;;9.57;6.10;;;;;;;;;;6287333;28;20318;-72
2023/09/06 06:20:55;;;;;;;8.77;6.27;;;;;;;;;;6291681;28;20197;-72
2023/09/06 06:23:56;;;;;;;8.50;6.07;;;;;;;;;;6250739;28;20195;-72
2023/09/06 06:26:58;;;;;;;8.23;6.23;;;;;;;;;;6277148;28;20194;-72
2023/09/06 06:29:59;;;;;;;7.03;5.47;;;;;;;;;;6274410;28;20190;-72
2023/09/06 06:33:00;;;;;;;6.97;6.10;;;;;;;;;;6302569;28;21078;-72
2023/09/06 06:36:01;;;;;;;7.00;6.27;;;;;;;;;;6261499;28;20538;-72
2023/09/06 06:39:02;;;;;;;6.93;5.90;;;;;;;;;;6297794;28;20255;-72
2023/09/06 06:42:04;;;;;;;8.70;5.80;;;;;;;;;;6286357;28;20215;-72
2023/09/06 06:45:06;;;;;;;6.83;5.93;;;;;;;;;;6288850;28;20200;-72
2023/09/06 06:48:07;;;;;;;9.30;6.57;;;;;;;;;;6292073;28;20206;-72
2023/09/06 06:51:08;;;;;;;7.30;5.70;;;;;;;;;;6291146;28;20296;-72
2023/09/06 06:54:10;;;;;;;6.17;5.53;;;;;;;;;;6269203;28;20209;-72
2023/09/06 06:57:11;;;;;;;7.83;7.07;;;;;;;;;;6283601;28;20194;-72
2023/09/06 07:00:12;;;;;;;7.00;6.27;;;;;;;;;;6270570;28;20198;-72
2023/09/06 07:03:13;;;;;;;7.77;6.30;;;;;;;;;;6287062;28;20229;-72
2023/09/06 07:06:14;;;;;;;9.20;6.50;;;;;;;;;;6266492;28;20190;-72
2023/09/06 07:09:15;;;;;;;8.43;7.00;;;;;;;;;;6266316;28;20187;-72
2023/09/06 07:12:16;;;;;;;7.63;6.83;;;;;;;;;;6292343;28;20194;-72
2023/09/06 07:15:17;;;;;;;7.87;6.70;;;;;;;;;;6283538;28;20193;-72
2023/09/06 07:18:18;;;;;;;7.70;6.20;;;;;;;;;;6274767;28;20206;-72
2023/09/06 07:21:19;;;;;;;6.37;5.77;;;;;;;;;;6311421;28;20217;-72
2023/09/06 07:24:20;;;;;;;9.37;5.90;;;;;;;;;;6286468;28;20194;-72
2023/09/06 07:27:21;;;;;;;8.33;6.90;;;;;;;;;;6290205;28;20187;-72
2023/09/06 07:30:22;;;;;;;7.03;5.57;;;15.40;84.70;;;;;;6273025;28;20197;-72
2023/09/06 07:33:23;;;;;;;7.50;6.10;;;15.30;84.90;;;;;;6290149;28;20252;-72
2023/09/06 07:36:23;;;;;;;6.90;6.27;;;15.30;84.70;;;;;;6259259;28;20198;-72
2023/09/06 07:39:24;;;;;;;7.30;6.33;;;15.40;84.40;;;;;;6276475;28;20193;-72
2023/09/06 07:42:25;;;;;;;7.60;6.30;;;15.40;84.40;;;;;;6257344;28;20289;-72
2023/09/06 07:45:25;;;;;;;7.00;6.27;;;15.50;84.70;;;;;;6297572;28;20190;-72
2023/09/06 07:48:31;;;;;;;8.23;6.70;;;15.60;84.10;;;;;;6254351;28;20198;-72
2023/09/06 07:51:32;;;;;;;8.10;6.17;;;15.60;84.00;;;;;;6251390;28;20203;-72
2023/09/06 07:54:32;;;;;;;8.30;6.60;;;15.70;84.10;;;;;;6256638;28;20228;-72
2023/09/06 07:57:33;;;;;;;7.87;6.73;;;15.80;83.70;;;;;;6238382;28;20224;-72
2023/09/06 08:00:36;;;;;;;11.40;6.73;;;15.80;82.80;;;;;;6250767;28;20194;-72
2023/09/06 08:03:36;;;;;;;6.97;6.27;;;16.00;82.90;;;;;;6255473;28;20275;-72
2023/09/06 08:06:37;;;;;;;8.07;6.30;;;16.10;81.30;;;;;;6260478;28;20194;-72
2023/09/06 08:09:38;;;;;;;7.30;6.57;;;16.20;81.80;;;;;;6256394;28;20218;-72
2023/09/06 08:12:39;;;;;;;6.63;5.97;;;16.30;82.00;;;;;;6266697;28;20259;-72
2023/09/06 08:15:40;;;;;;;8.80;6.57;;;16.40;81.90;;;;;;6269562;28;20276;-72
2023/09/06 08:18:40;;;;;;;6.20;5.60;;;16.40;82.90;;;;;;6265371;28;20208;-72
2023/09/06 08:21:42;;;;;;;5.93;5.33;;;16.50;82.10;;;;;;6253243;28;20311;-72
2023/09/06 08:24:42;;;;;;;7.37;6.30;;;16.50;81.80;;;;;;6265385;28;20193;-72
2023/09/06 08:27:44;;;;;;;6.90;5.97;;;16.60;82.30;;;;;;6257598;28;20224;-71
2023/09/06 08:30:46;;;;;;;6.77;6.17;;;16.70;81.90;;;;;;6278403;28;20194;-71
2023/09/06 08:33:47;;;;;;;6.10;5.53;;;16.70;82.20;;;;;;6272517;28;20300;-71
2023/09/06 08:36:48;;;;;;;6.23;5.63;;;16.80;80.50;;;;;;6295437;28;20235;-72
2023/09/06 08:39:48;;;;;;;7.07;5.33;;;16.90;79.60;;;;;;6264643;28;20203;-72
2023/09/06 08:42:49;;;;;;;5.90;5.40;;;17.00;77.60;;;;;;6297305;28;20217;-72
2023/09/06 08:45:51;;;;;;;6.03;5.10;;;17.10;75.50;;;;;;6260029;28;20190;-71
2023/09/06 08:48:55;;;;;;;5.23;4.73;;;17.20;75.90;;;;;;6265427;28;20187;-71
2023/09/06 08:51:58;;;;;;;5.70;5.20;;;17.20;76.20;;;;;;6291429;28;21319;-71
2023/09/06 08:55:00;;;;;;;6.10;5.50;;;;;;;;;;6270773;28;20190;-71
2023/09/06 08:58:03;;;;;;;5.50;5.00;;;;;;;;;;6280285;28;20206;-71
2023/09/06 09:01:04;;;;;;;6.90;4.53;;;;;;;;;;6288375;28;20197;-71
2023/09/06 09:04:05;;;;;;;4.27;3.90;;;;;;;;;;6293263;28;20197;-67
2023/09/06 09:07:07;;;;;;;4.67;3.70;;;;;;;;;;6274213;28;20190;-68
2023/09/06 09:10:09;;;;;;;3.97;3.57;;;;;;;;;;6300903;28;20194;-67
2023/09/06 09:13:15;;;;;;;3.53;3.23;;;;;;;;;;6266402;28;20193;-68
2023/09/06 09:16:16;;;;;;;3.87;3.47;;;;;;;;;;6271484;28;20194;-68
2023/09/06 09:19:17;;;;;;;4.20;3.83;;;;;;;;;;6284650;28;20277;-67
2023/09/06 09:22:25;;;;;;;5.33;4.00;;;;;;;;;;6291740;28;20225;-68
2023/09/06 09:25:26;;;;;;;4.33;3.70;;;;;;;;;;6280559;28;20191;-68
2023/09/06 09:28:28;;;;;;;3.70;3.40;;;;;;;;;;6264720;28;20221;-68
2023/09/06 09:31:30;;;;;;;3.87;3.47;;;;;;;;;;6254798;28;20254;-68
2023/09/06 09:34:31;;;;;;;4.80;4.40;;;;;;;;;;6282703;28;20194;-68
2023/09/06 09:37:32;;;;;;;4.87;4.47;;;;;;;;;;6294018;28;20193;-68
2023/09/06 09:40:34;;;;;;;4.57;4.23;;;;;;;;;;6295417;28;20193;-68
2023/09/06 09:43:35;;;;;;;4.17;3.73;;;;;;;;;;6291393;28;20300;-68
2023/09/06 09:46:36;;;;;;;4.33;3.93;;;;;;;;;;6282680;28;20209;-68
2023/09/06 09:49:39;;;;;;;3.87;3.57;;;;;;;;;;6268446;28;20197;-68
2023/09/06 09:52:42;;;;;;;3.90;3.60;;;;;;;;;;6289435;28;20213;-67
2023/09/06 09:55:47;;;;;;;4.13;3.73;;;;;;;;;;6291613;28;20202;-67
2023/09/06 09:58:49;;;;;;;5.67;3.73;;;;;;;;;;6282716;28;20191;-67
2023/09/06 10:01:51;;;;;;;3.90;3.60;;;;;;;;;;6275464;28;20258;-68
2023/09/06 10:04:53;;;;;;;5.60;4.03;;;;;;;;;;6284780;28;20186;-68
2023/09/06 10:07:57;;;;;;;3.73;3.43;;;;;;;;;;6299158;28;20186;-68
2023/09/06 10:10:58;;;;;;;4.50;4.10;;;;;;;;;;6279240;28;20253;-68
2023/09/06 10:14:00;;;;;;;5.67;3.30;;;;;;;;;;6289301;28;20197;-68
2023/09/06 10:17:02;;;;;;;7.33;3.57;;;;;;;;;;6283404;28;20220;-68
2023/09/06 10:20:04;;;;;;;4.33;3.80;;;;;;;;;;6278883;28;20284;-68
2023/09/06 10:23:05;;;;;;;4.97;3.70;;;;;;;;;;6287324;28;20218;-68
2023/09/06 10:26:07;;;;;;;4.30;3.90;;;;;;;;;;6289272;28;20177;-68
2023/09/06 10:29:11;;;;;;;5.13;4.60;;;;;;;;;;6258082;28;20196;-68
2023/09/06 10:32:12;;;;;;;3.90;3.50;;;;;;;;;;6283551;28;20237;-68
2023/09/06 10:35:21;;;;;;;3.70;3.40;;;;;;;;;;6280363;28;20202;-68
2023/09/06 10:38:22;;;;;;;3.90;3.33;;;;;;;;;;6280613;28;20191;-68
2023/09/06 10:41:23;;;;;;;4.30;3.90;;;;;;;;;;6276883;28;20238;-68
2023/09/06 10:44:25;;;;;;;3.83;3.30;;;;;;;;;;6296927;28;20198;-68
2023/09/06 10:47:31;;;;;;;4.83;3.83;;;;;;;;;;6303240;28;20197;-68
2023/09/06 10:50:32;;;;;;;3.73;3.17;;;;;;;;;;6287234;28;20197;-68
2023/09/06 10:53:40;;;;;;;4.00;3.50;;;;;;;;;;6265845;28;20190;-68
2023/09/06 10:56:50;;;;;;;5.17;3.63;;;;;;;;;;6279622;28;20194;-68
2023/09/06 10:59:58;;;;;;;4.33;3.67;;;;;;;;;;6280789;28;20198;-68
2023/09/06 11:03:05;;;;;;;4.10;3.80;;;;;;;;;;6295335;28;20206;-68
2023/09/06 11:06:06;;;;;;;3.70;3.40;;;;;;;;;;6282505;28;20608;-68
2023/09/06 11:09:10;;;;;;;4.43;3.47;;;;;;;;;;6288802;28;20256;-68
2023/09/06 11:12:12;;;;;;;4.10;3.60;;;;;;;;;;6270505;28;20248;-68
2023/09/06 11:15:13;;;;;;;4.33;3.93;;;;;;;;;;6275456;28;20193;-68
2023/09/06 11:18:14;;;;;;;3.63;3.33;;;;;;;;;;6285636;28;20217;-67
2023/09/06 11:21:19;;;;;;;3.33;3.10;;;;;;;;;;6285096;28;20226;-67
2023/09/06 11:24:32;;;;;;;5.23;3.97;;;;;;;;;;6287168;28;20194;-68
2023/09/06 11:27:37;;;;;;;3.53;3.23;;;;;;;;;;6283108;28;20244;-67
2023/09/06 11:30:39;;;;;;;3.50;3.23;;;;;;;;;;6269714;28;20234;-67
2023/09/06 11:33:40;;;;;;;3.60;3.30;;;;;;;;;;6289386;28;20323;-67
2023/09/06 11:36:41;;;;;;;4.87;3.50;;;;;;;;;;6288704;28;20202;-67
2023/09/06 11:39:45;;;;;;;3.30;3.10;;;;;;;;;;6283214;28;20211;-68
2023/09/06 11:42:56;;;;;;;4.10;2.90;;;;;;;;;;6282342;28;20214;-67
2023/09/06 11:46:03;;;;;;;4.63;2.90;;;;;;;;;;6277524;28;20197;-68
2023/09/06 11:49:06;;;;;;;3.87;3.27;;;;;;;;;;6281448;28;20217;-67
2023/09/06 11:52:07;;;;;;;3.70;3.30;;;23.80;55.30;;;;;;6289187;28;20204;-67
2023/09/06 11:55:09;;;;;;;3.00;2.80;;;23.60;55.40;;;;;;6265305;28;20198;-67
2023/09/06 11:58:16;;;;;;;3.20;2.90;;;23.70;56.90;;;;;;6288456;28;20201;-67
2023/09/06 12:01:21;;;;;;;3.17;2.87;;;;;;;;;;6287455;28;20201;-68
2023/09/06 12:04:22;;;;;;;3.43;3.13;;;23.90;58.30;;;;;;6280760;28;20222;-68
2023/09/06 12:07:24;;;;;;;2.80;2.60;;;;;;;;;;6267995;28;20194;-68
2023/09/06 12:10:27;;;;;;;3.13;2.87;;;24.60;57.10;;;;;;6285647;28;20216;-68
2023/09/06 12:13:31;;;;;;;3.33;2.30;;;26.50;52.70;;;;;;6275337;28;20198;-68
2023/09/06 12:16:36;;;;;;;3.47;2.50;;;28.00;49.80;;;;;;6255069;28;20236;-67
2023/09/06 12:19:37;;;;;;;2.90;2.63;;;28.00;49.20;;;;;;6295289;28;20190;-67
2023/09/06 12:22:37;;;;;;;2.93;2.73;;;27.80;50.40;;;;;;6270069;28;20232;-67
2023/09/06 12:25:38;;;;;;;2.40;2.20;;;;;;;;;;6250986;28;20189;-68
2023/09/06 12:28:39;;;;;;;2.80;2.60;;;;;;;;;;6277600;28;20245;-68
2023/09/06 12:31:40;;;;;;;2.43;2.23;;;30.50;44.60;;;;;;6294476;28;20228;-68
2023/09/06 12:34:41;;;;;;;2.60;2.40;;;33.00;39.60;;;;;;6256740;28;20211;-69
2023/09/06 12:37:42;;;;;;;2.58;2.38;;;;;;;;;;6270525;28;20205;-68
2023/09/06 12:40:43;;;;;;;3.80;2.35;;;;;;;;;;6272489;28;20202;-68
2023/09/06 12:43:44;;;;;;;2.78;2.20;;;;;;;;;;6271549;28;20267;-69
2023/09/06 12:46:45;;;;;;;2.70;2.03;;;;;;;;;;6287707;28;20197;-68
2023/09/06 12:49:46;;;;;;;2.70;2.50;;;;;;;;;;6288541;28;20196;-68
2023/09/06 12:52:47;;;;;;;2.70;2.50;;;;;;;;;;6281619;28;20244;-68
2023/09/06 12:55:48;;;;;;;3.40;2.60;;;;;;;;;;6268885;28;20190;-68
2023/09/06 12:58:49;;;;;;;4.95;2.13;;;;;;;;;;6298202;28;20197;-68
2023/09/06 13:01:50;;;;;;;2.20;1.95;;;;;;;;;;6308596;28;20221;-68
2023/09/06 13:04:52;;;;;;;2.05;1.90;;;;;;;;;;6289556;28;20186;-68
2023/09/06 13:07:53;;;;;;;3.45;2.20;;;;;;;;;;6280362;28;20197;-68
2023/09/06 13:10:54;;;;;;;2.95;1.73;;;;;;;;;;6277234;28;20185;-68
2023/09/06 13:13:55;;;;;;;2.13;2.03;;;;;;;;;;6291796;28;20185;-69
2023/09/06 13:16:57;;;;;;;2.22;2.08;;;;;;;;;;6254571;28;20200;-68
2023/09/06 13:19:58;;;;;;;2.10;1.98;;;;;;;;;;6307616;28;20193;-69
2023/09/06 13:22:59;;;;;;;2.30;2.13;;;;;;;;;;6288393;28;20217;-69
2023/09/06 13:26:00;;;;;;;2.22;2.13;;;;;;;;;;6290290;28;20198;-69
2023/09/06 13:29:01;;;;;;;2.35;2.10;;;;;;;;;;6296675;28;20193;-69
2023/09/06 13:32:04;;;;;;;2.35;2.08;;;;;;;;;;6283022;28;20279;-69
2023/09/06 13:35:05;;;;;;;2.03;1.83;;;;;;;;;;6275725;28;20270;-69
2023/09/06 13:38:06;;;;;;;2.03;1.85;;;;;;;;;;6288269;28;20186;-68
2023/09/06 13:41:07;;;;;;;2.20;2.00;;;;;;;;;;6298593;28;20185;-69
2023/09/06 13:44:08;;;;;;;4.03;1.92;;;;;;;;;;6292837;28;20186;-69
2023/09/06 13:47:10;;;;;;;2.30;2.15;;;43.50;28.50;;;;;;6276970;28;20186;-69
2023/09/06 13:50:10;;;;;;;2.10;1.90;;;43.70;27.50;;;;;;6282763;28;20193;-69
2023/09/06 13:53:11;;;;;;;2.60;1.98;;;43.60;27.20;;;;;;6290990;28;20195;-69
2023/09/06 13:56:12;;;;;;;2.25;2.08;;;43.70;27.40;;;;;;6262226;28;20186;-69
2023/09/06 13:59:13;;;;;;;2.30;2.10;;;43.20;27.00;;;;;;6273523;28;20243;-69
2023/09/06 14:02:14;;;;;;;2.10;1.90;;;43.00;27.70;;;;;;6284678;28;20229;-69
2023/09/06 14:05:14;;;;;;;2.40;2.20;;;43.40;27.60;;;;;;6263255;28;20187;-69
2023/09/06 14:08:15;;;;;;;2.58;2.08;;;43.40;27.60;;;;;;6257814;28;20220;-69
2023/09/06 14:11:18;;;;;;;2.00;1.90;;;43.10;27.70;;;;;;6283389;28;20240;-72
2023/09/06 14:14:18;;;;;;;3.00;2.08;;;43.30;28.80;;;;;;6249706;28;20269;-68
2023/09/06 14:17:19;;;;;;;2.58;2.10;;;43.10;27.90;;;;;;6289071;28;20198;-69
2023/09/06 14:20:20;;;;;;;2.08;1.98;;;43.00;27.80;;;;;;6277749;28;20193;-69
2023/09/06 14:23:21;;;;;;;2.67;2.00;;;42.80;28.50;;;;;;6250145;28;20201;-70
2023/09/06 14:26:22;;;;;;;2.60;1.90;;;42.80;28.30;;;;;;6271411;28;20221;-69
2023/09/06 14:29:22;;;;;;;2.05;1.88;;;42.50;27.80;;;;;;6276115;28;20182;-68
2023/09/06 14:32:23;;;;;;;2.00;1.90;;;42.40;27.50;;;;;;6273571;28;20248;-69
2023/09/06 14:35:24;;;;;;;3.33;2.20;;;42.40;28.20;;;;;;6272058;28;20204;-68
2023/09/06 14:38:24;;;;;;;3.95;2.30;;;41.70;28.10;;;;;;6286112;28;20228;-69
2023/09/06 14:41:25;;;;;;;2.53;2.20;;;41.80;29.20;;;;;;6257217;28;20208;-69
2023/09/06 14:44:26;;;;;;;2.47;2.08;;;41.60;30.20;;;;;;6297908;28;20190;-69
2023/09/06 14:47:30;;;;;;;2.40;2.20;;;41.40;30.00;;;;;;6295997;28;20260;-69
2023/09/06 14:50:33;;;;;;;2.95;2.35;;;41.10;30.50;;;;;;6282084;28;20273;-69
2023/09/06 14:53:34;;;;;;;2.90;2.58;;;40.80;30.40;;;;;;6279244;28;20279;-70
2023/09/06 14:56:35;;;;;;;3.65;2.10;;;40.60;30.10;;;;;;6280878;28;20190;-69
2023/09/06 14:59:38;;;;;;;2.35;2.10;;;;;;;;;;6256192;28;20209;-66
2023/09/06 15:02:39;;;;;;;2.40;2.20;;;;;;;;;;6261106;28;20214;-67
2023/09/06 15:05:42;;;;;;;2.58;2.30;;;40.30;31.70;;;;;;6292606;28;20189;-67
2023/09/06 15:08:44;;;;;;;2.25;2.15;;;39.10;31.40;;;;;;6286011;28;20190;-65
2023/09/06 15:11:45;;;;;;;2.50;2.30;;;;;;;;;;6277825;28;20205;-66
2023/09/06 15:14:46;;;;;;;2.58;2.20;;;;;;;;;;6299963;28;20257;-67
2023/09/06 15:17:48;;;;;;;2.67;2.47;;;;;;;;;;6302110;28;20243;-67
2023/09/06 15:20:49;;;;;;;2.40;2.20;;;;;;;;;;6287292;28;20197;-67
2023/09/06 15:23:50;;;;;;;3.27;2.20;;;;;;;;;;6338792;22;20249;-65
2023/09/06 15:26:51;;;;;;;2.63;2.40;;;37.90;32.20;;;;;;6204151;28;20199;-65
2023/09/06 15:29:52;;;;;;;2.93;2.63;;;32.50;38.70;;;;;;6201736;28;20196;-64
2023/09/06 15:32:53;;;;;;;2.70;2.50;;;31.70;39.60;;;;;;6223435;28;20206;-64
2023/09/06 15:35:54;;;;;;;2.83;2.63;;;31.10;42.30;;;;;;6200223;28;20282;-64
2023/09/06 15:38:55;;;;;;;3.27;2.97;;;30.70;41.30;;;;;;6193805;28;20261;-64
2023/09/06 15:41:55;;;;;;;2.90;2.70;;;30.40;43.20;;;;;;6182970;28;20239;-64
2023/09/06 15:44:57;;;;;;;3.30;2.73;;;30.00;44.10;;;;;;6204886;28;20200;-64
2023/09/06 15:47:59;;;;;;;3.23;2.80;;;;;;;;;;6201637;28;20222;-64
2023/09/06 15:51:00;;;;;;;3.33;3.03;;;;;;;;;;6199308;28;20188;-64
2023/09/06 15:54:01;;;;;;;3.00;2.70;;;;;;;;;;6196719;28;20183;-64
2023/09/06 15:57:02;;;;;;;3.43;2.63;;;;;;;;;;6217599;28;20179;-63
2023/09/06 16:00:08;;;;;;;2.73;2.53;;;;;;;;;;6212476;28;20179;-64
2023/09/06 16:03:09;;;;;;;3.07;2.37;;;;;;;;;;6206919;28;20207;-64
2023/09/06 16:06:11;;;;;;;3.27;3.07;;;;;;;;;;6219111;28;20207;-64
2023/09/06 16:09:12;;;;;;;3.23;2.87;;;29.90;44.60;;;;;;6199073;28;20198;-63
2023/09/06 16:12:13;;;;;;;2.80;2.60;;;;;;;;;;6204675;28;20183;-66
2023/09/06 16:15:15;;;;;;;3.67;2.97;;;;;;;;;;6213064;28;20184;-64
2023/09/06 16:18:17;;;;;;;3.20;3.00;;;;;;;;;;6220128;28;20188;-64
2023/09/06 16:21:18;;;;;;;2.83;2.57;;;;;;;;;;6221781;28;20188;-64
2023/09/06 16:24:19;;;;;;;3.60;2.80;;;;;;;;;;6223145;28;20226;-64
2023/09/06 16:27:22;;;;;;;3.43;2.93;;;27.50;51.10;;;;;;6212911;28;20237;-64
2023/09/06 16:30:23;;;;;;;3.63;3.10;;;27.40;50.50;;;;;;6184556;28;20187;-64
2023/09/06 16:33:24;;;;;;;4.33;3.50;;;27.20;51.90;;;;;;6180284;28;20190;-64
2023/09/06 16:36:26;;;;;;;3.27;2.67;;;26.90;52.60;;;;;;6222979;28;20196;-64
2023/09/06 16:39:27;;;;;;;3.63;3.33;;;26.70;53.70;;;;;;6192869;28;20191;-63
2023/09/06 16:42:28;;;;;;;4.13;3.33;;;26.50;54.10;;;;;;6204714;28;20238;-66
2023/09/06 16:45:29;;;;;;;3.90;3.30;;;26.40;53.80;;;;;;6229271;28;20185;-65
2023/09/06 16:48:30;;;;;;;3.80;3.23;;;26.10;54.20;;;;;;6196647;28;20186;-64
2023/09/06 16:51:35;;;;;;;4.07;3.13;;;26.00;55.00;;;;;;6214458;28;20197;-64
2023/09/06 16:54:35;;;;;;;3.47;3.17;;;25.80;54.70;;;;;;6209573;28;20191;-64
2023/09/06 16:57:37;;;;;;;3.23;2.93;;;25.60;55.70;;;;;;6206070;28;20188;-63
2023/09/06 17:00:39;;;;;;;4.07;3.13;;;24.00;50.00;;;;;;6191868;28;20191;-64
2023/09/06 17:03:40;;;;;;;3.60;3.30;;;25.50;56.50;;;;;;6213772;28;20200;-64
2023/09/06 17:06:42;;;;;;;3.63;3.33;;;25.00;57.30;;;;;;6218127;28;20190;-63
2023/09/06 17:09:42;;;;;;;4.00;3.10;;;24.70;57.60;;;;;;6200842;28;20198;-63
2023/09/06 17:12:43;;;;;;;4.17;3.30;;;24.50;58.00;;;;;;6195396;28;20199;-64
2023/09/06 17:15:44;;;;;;;3.23;3.00;;;24.20;58.50;;;;;;6199783;28;20229;-64
2023/09/06 17:18:45;;;;;;;3.60;3.30;;;24.00;58.80;;;;;;6218680;28;20263;-64
2023/09/06 17:21:46;;;;;;;3.53;3.23;;;23.80;59.70;;;;;;6214051;28;20215;-65
2023/09/06 17:24:48;;;;;;;4.43;3.43;;;23.50;60.40;;;;;;6189284;28;20232;-65